sensor_id;sensor_type;location;lat;lon;timestamp;pressure;altitude;pressure_sealevel;temperature;humidity
61674;BME280;47573;43.832;5.974;2022-08-07T00:01:59;95094.75;;;29.55;43.36
61674;BME280;47573;43.832;5.974;2022-08-07T00:06:59;95090.47;;;29.73;42.87
61674;BME280;47573;43.832;5.974;2022-08-07T00:12:00;95093.56;;;29.90;43.04
61674;BME280;47573;43.832;5.974;2022-08-07T00:17:02;95098.34;;;30.08;42.82
61674;BME280;47573;43.832;5.974;2022-08-07T00:22:02;95106.31;;;30.09;43.26
61674;BME280;47573;43.832;5.974;2022-08-07T00:27:03;95108.19;;;30.14;43.35
61674;BME280;47573;43.832;5.974;2022-08-07T00:32:05;95104.03;;;30.16;43.19
61674;BME280;47573;43.832;5.974;2022-08-07T00:37:07;95097.47;;;30.12;43.09
61674;BME280;47573;43.832;5.974;2022-08-07T00:42:07;95093.53;;;30.18;43.01
61674;BME280;47573;43.832;5.974;2022-08-07T00:47:09;95090.69;;;30.24;42.79
61674;BME280;47573;43.832;5.974;2022-08-07T00:52:10;95089.31;;;30.26;42.93
61674;BME280;47573;43.832;5.974;2022-08-07T00:57:11;95095.00;;;30.35;43.16
61674;BME280;47573;43.832;5.974;2022-08-07T01:02:13;95093.97;;;30.26;42.92
61674;BME280;47573;43.832;5.974;2022-08-07T01:07:14;95100.00;;;30.33;43.10
61674;BME280;47573;43.832;5.974;2022-08-07T01:12:15;95095.00;;;30.35;43.01
61674;BME280;47573;43.832;5.974;2022-08-07T01:17:18;95098.09;;;30.52;42.84
61674;BME280;47573;43.832;5.974;2022-08-07T01:22:21;95100.38;;;30.45;42.91
61674;BME280;47573;43.832;5.974;2022-08-07T01:27:22;95098.66;;;30.49;42.66
61674;BME280;47573;43.832;5.974;2022-08-07T01:32:22;95095.91;;;30.49;42.71
61674;BME280;47573;43.832;5.974;2022-08-07T01:37:25;95093.53;;;30.42;43.20
61674;BME280;47573;43.832;5.974;2022-08-07T01:42:27;95096.28;;;30.61;42.59
61674;BME280;47573;43.832;5.974;2022-08-07T01:47:27;95091.97;;;30.55;42.99
61674;BME280;47573;43.832;5.974;2022-08-07T01:52:30;95093.63;;;30.56;42.50
61674;BME280;47573;43.832;5.974;2022-08-07T01:57:34;95091.81;;;30.65;42.30
61674;BME280;47573;43.832;5.974;2022-08-07T02:02:41;95080.94;;;30.55;42.78
61674;BME280;47573;43.832;5.974;2022-08-07T02:07:48;95093.25;;;30.62;42.23
61674;BME280;47573;43.832;5.974;2022-08-07T02:12:50;95082.53;;;30.61;42.78
61674;BME280;47573;43.832;5.974;2022-08-07T02:17:52;95074.78;;;30.63;42.41
61674;BME280;47573;43.832;5.974;2022-08-07T02:22:57;95078.72;;;30.57;42.48
61674;BME280;47573;43.832;5.974;2022-08-07T02:27:59;95083.03;;;30.63;42.76
61674;BME280;47573;43.832;5.974;2022-08-07T02:33:01;95072.63;;;30.60;42.46
61674;BME280;47573;43.832;5.974;2022-08-07T02:38:03;95078.72;;;30.57;42.75
61674;BME280;47573;43.832;5.974;2022-08-07T02:43:05;95082.00;;;30.59;42.82
61674;BME280;47573;43.832;5.974;2022-08-07T02:48:06;95079.19;;;30.64;42.73
61674;BME280;47573;43.832;5.974;2022-08-07T02:53:10;95067.13;;;30.60;42.45
61674;BME280;47573;43.832;5.974;2022-08-07T02:58:14;95069.34;;;30.58;42.62
61674;BME280;47573;43.832;5.974;2022-08-07T03:03:17;95067.63;;;30.62;42.19
61674;BME280;47573;43.832;5.974;2022-08-07T03:08:20;95070.59;;;30.65;42.50
61674;BME280;47573;43.832;5.974;2022-08-07T03:13:21;95073.72;;;30.59;42.76
61674;BME280;47573;43.832;5.974;2022-08-07T03:18:22;95073.44;;;30.60;42.50
61674;BME280;47573;43.832;5.974;2022-08-07T03:23:26;95070.38;;;30.62;42.34
61674;BME280;47573;43.832;5.974;2022-08-07T03:28:28;95071.81;;;30.59;42.53
61674;BME280;47573;43.832;5.974;2022-08-07T03:33:29;95079.53;;;30.57;43.02
61674;BME280;47573;43.832;5.974;2022-08-07T03:38:31;95078.72;;;30.57;42.71
61674;BME280;47573;43.832;5.974;2022-08-07T03:43:33;95079.31;;;30.54;43.01
61674;BME280;47573;43.832;5.974;2022-08-07T03:48:34;95079.19;;;30.64;42.70
61674;BME280;47573;43.832;5.974;2022-08-07T03:53:37;95092.75;;;30.60;42.97
61674;BME280;47573;43.832;5.974;2022-08-07T03:58:38;95098.53;;;30.59;42.86
61674;BME280;47573;43.832;5.974;2022-08-07T04:03:39;95096.91;;;30.58;42.77
61674;BME280;47573;43.832;5.974;2022-08-07T04:08:41;95096.03;;;30.62;42.97
61674;BME280;47573;43.832;5.974;2022-08-07T04:13:41;95097.94;;;30.62;42.65
61674;BME280;47573;43.832;5.974;2022-08-07T04:18:42;95095.91;;;30.49;42.81
61674;BME280;47573;43.832;5.974;2022-08-07T04:23:45;95095.25;;;30.57;42.72
61674;BME280;47573;43.832;5.974;2022-08-07T04:28:45;95101.72;;;30.47;43.04
61674;BME280;47573;43.832;5.974;2022-08-07T04:33:46;95106.28;;;30.57;42.86
61674;BME280;47573;43.832;5.974;2022-08-07T04:38:48;95107.47;;;30.51;42.85
61674;BME280;47573;43.832;5.974;2022-08-07T04:43:49;95103.72;;;30.42;42.63
61674;BME280;47573;43.832;5.974;2022-08-07T04:48:58;95114.63;;;30.52;42.80
61674;BME280;47573;43.832;5.974;2022-08-07T04:54:03;95119.31;;;30.51;42.61
61674;BME280;47573;43.832;5.974;2022-08-07T04:59:10;95122.13;;;27.75;46.17
61674;BME280;47573;43.832;5.974;2022-08-07T05:04:15;95118.66;;;26.27;49.41
61674;BME280;47573;43.832;5.974;2022-08-07T05:09:25;95126.19;;;25.95;50.29
61674;BME280;47573;43.832;5.974;2022-08-07T05:14:30;95128.09;;;26.61;49.19
61674;BME280;47573;43.832;5.974;2022-08-07T05:19:35;95141.63;;;26.21;50.01
61674;BME280;47573;43.832;5.974;2022-08-07T05:24:38;95143.00;;;27.46;47.29
61674;BME280;47573;43.832;5.974;2022-08-07T05:29:40;95152.81;;;27.12;47.96
61674;BME280;47573;43.832;5.974;2022-08-07T05:34:43;95151.66;;;28.13;45.87
61674;BME280;47573;43.832;5.974;2022-08-07T05:39:46;95167.66;;;27.81;46.30
61674;BME280;47573;43.832;5.974;2022-08-07T05:44:47;95155.91;;;27.40;47.49
61674;BME280;47573;43.832;5.974;2022-08-07T05:49:49;95167.06;;;27.84;46.65
61674;BME280;47573;43.832;5.974;2022-08-07T05:54:51;95166.00;;;27.85;46.41
61674;BME280;47573;43.832;5.974;2022-08-07T05:59:53;95182.44;;;27.95;46.26
61674;BME280;47573;43.832;5.974;2022-08-07T06:04:56;95181.94;;;27.73;47.08
61674;BME280;47573;43.832;5.974;2022-08-07T06:10:00;95187.25;;;28.58;45.01
61674;BME280;47573;43.832;5.974;2022-08-07T06:15:01;95191.72;;;28.29;45.69
61674;BME280;47573;43.832;5.974;2022-08-07T06:20:02;95196.50;;;28.73;44.25
61674;BME280;47573;43.832;5.974;2022-08-07T06:25:05;95202.22;;;28.02;46.09
61674;BME280;47573;43.832;5.974;2022-08-07T06:30:07;95210.97;;;28.14;45.96
61674;BME280;47573;43.832;5.974;2022-08-07T06:35:08;95209.75;;;28.60;44.70
61674;BME280;47573;43.832;5.974;2022-08-07T06:40:10;95213.34;;;29.15;43.57
61674;BME280;47573;43.832;5.974;2022-08-07T06:45:14;95212.09;;;29.36;42.90
61674;BME280;47573;43.832;5.974;2022-08-07T06:50:16;95216.50;;;29.32;43.52
61674;BME280;47573;43.832;5.974;2022-08-07T06:55:22;95215.56;;;29.52;42.77
61674;BME280;47573;43.832;5.974;2022-08-07T07:00:24;95221.81;;;29.62;42.76
61674;BME280;47573;43.832;5.974;2022-08-07T07:05:25;95223.38;;;29.73;43.01
61674;BME280;47573;43.832;5.974;2022-08-07T07:10:28;95221.31;;;29.55;43.38
61674;BME280;47573;43.832;5.974;2022-08-07T07:15:30;95216.22;;;29.72;42.99
61674;BME280;47573;43.832;5.974;2022-08-07T07:20:36;95220.59;;;29.78;43.08
61674;BME280;47573;43.832;5.974;2022-08-07T07:25:41;95223.88;;;29.80;43.20
61674;BME280;47573;43.832;5.974;2022-08-07T07:30:47;95225.56;;;29.76;43.35
61674;BME280;47573;43.832;5.974;2022-08-07T07:35:51;95218.38;;;29.80;43.48
61674;BME280;47573;43.832;5.974;2022-08-07T07:40:59;95213.41;;;29.82;43.46
61674;BME280;47573;43.832;5.974;2022-08-07T07:46:01;95220.41;;;29.98;42.72
61674;BME280;47573;43.832;5.974;2022-08-07T07:51:03;95222.28;;;30.03;42.89
61674;BME280;47573;43.832;5.974;2022-08-07T07:56:07;95231.41;;;29.98;43.12
61674;BME280;47573;43.832;5.974;2022-08-07T08:01:09;95231.19;;;29.95;43.07
61674;BME280;47573;43.832;5.974;2022-08-07T08:06:11;95225.13;;;29.98;43.24
61674;BME280;47573;43.832;5.974;2022-08-07T08:11:13;95232.97;;;30.09;42.87
61674;BME280;47573;43.832;5.974;2022-08-07T08:16:17;95223.88;;;30.09;42.99
61674;BME280;47573;43.832;5.974;2022-08-07T08:21:18;95217.47;;;30.18;43.48
61674;BME280;47573;43.832;5.974;2022-08-07T08:26:20;95217.41;;;30.24;43.39
61674;BME280;47573;43.832;5.974;2022-08-07T08:31:23;95214.44;;;29.09;44.46
61674;BME280;47573;43.832;5.974;2022-08-07T08:36:26;95211.69;;;29.09;43.93
61674;BME280;47573;43.832;5.974;2022-08-07T08:41:35;95212.28;;;29.06;43.58
61674;BME280;47573;43.832;5.974;2022-08-07T08:46:41;95213.78;;;28.83;43.83
61674;BME280;47573;43.832;5.974;2022-08-07T08:51:53;95218.44;;;28.88;43.81
61674;BME280;47573;43.832;5.974;2022-08-07T08:56:58;95206.88;;;29.73;42.43
61674;BME280;47573;43.832;5.974;2022-08-07T09:02:07;95209.50;;;29.88;42.18
61674;BME280;47573;43.832;5.974;2022-08-07T09:07:14;95206.28;;;29.81;42.13
61674;BME280;47573;43.832;5.974;2022-08-07T09:12:26;95202.44;;;29.77;42.30
61674;BME280;47573;43.832;5.974;2022-08-07T09:17:37;95194.97;;;29.83;42.11
61674;BME280;47573;43.832;5.974;2022-08-07T09:22:50;95211.25;;;29.79;42.09
61674;BME280;47573;43.832;5.974;2022-08-07T09:27:59;95203.00;;;29.79;41.85
61674;BME280;47573;43.832;5.974;2022-08-07T09:33:11;95196.06;;;29.82;41.59
61674;BME280;47573;43.832;5.974;2022-08-07T09:38:18;95184.19;;;29.86;41.70
61674;BME280;47573;43.832;5.974;2022-08-07T09:43:33;95195.69;;;29.93;41.27
61674;BME280;47573;43.832;5.974;2022-08-07T09:48:45;95192.41;;;29.91;41.40
61674;BME280;47573;43.832;5.974;2022-08-07T09:53:50;95188.53;;;29.92;41.21
61674;BME280;47573;43.832;5.974;2022-08-07T09:59:05;95186.63;;;29.88;41.16
61674;BME280;47573;43.832;5.974;2022-08-07T10:04:36;95187.47;;;29.88;40.85
61674;BME280;47573;43.832;5.974;2022-08-07T10:10:08;95179.28;;;29.83;41.08
61674;BME280;47573;43.832;5.974;2022-08-07T10:15:34;95183.03;;;29.92;40.66
61674;BME280;47573;43.832;5.974;2022-08-07T10:20:41;95173.91;;;29.97;40.76
61674;BME280;47573;43.832;5.974;2022-08-07T10:25:56;95166.03;;;29.85;40.73
61674;BME280;47573;43.832;5.974;2022-08-07T10:31:16;95165.41;;;29.93;40.48
61674;BME280;47573;43.832;5.974;2022-08-07T10:36:34;95146.38;;;28.96;41.64
61674;BME280;47573;43.832;5.974;2022-08-07T10:41:41;95145.31;;;28.87;41.84
61674;BME280;47573;43.832;5.974;2022-08-07T10:46:50;95134.91;;;28.84;41.96
61674;BME280;47573;43.832;5.974;2022-08-07T10:51:56;95128.31;;;28.80;41.88
61674;BME280;47573;43.832;5.974;2022-08-07T10:57:05;95129.72;;;28.72;42.06
61674;BME280;47573;43.832;5.974;2022-08-07T11:02:15;95120.66;;;28.77;41.90
61674;BME280;47573;43.832;5.974;2022-08-07T11:07:24;95122.22;;;28.88;41.58
61674;BME280;47573;43.832;5.974;2022-08-07T11:12:35;95106.84;;;28.82;41.68
61674;BME280;47573;43.832;5.974;2022-08-07T11:17:44;95110.88;;;28.99;41.48
61674;BME280;47573;43.832;5.974;2022-08-07T11:22:52;95102.47;;;28.81;41.05
61674;BME280;47573;43.832;5.974;2022-08-07T11:28:00;95092.09;;;28.73;41.35
61674;BME280;47573;43.832;5.974;2022-08-07T11:33:10;95104.41;;;28.80;40.81
61674;BME280;47573;43.832;5.974;2022-08-07T11:38:29;95100.81;;;28.85;40.61
61674;BME280;47573;43.832;5.974;2022-08-07T11:43:38;95096.97;;;28.86;40.38
61674;BME280;47573;43.832;5.974;2022-08-07T11:49:05;95089.50;;;28.86;40.35
61674;BME280;47573;43.832;5.974;2022-08-07T11:54:29;95092.03;;;28.83;40.31
61674;BME280;47573;43.832;5.974;2022-08-07T12:05:12;95076.63;;;28.82;40.24
61674;BME280;47573;43.832;5.974;2022-08-07T12:10:20;95067.31;;;28.78;40.16
61674;BME280;47573;43.832;5.974;2022-08-07T12:15:28;95065.38;;;28.83;40.08
61674;BME280;47573;43.832;5.974;2022-08-07T12:20:34;95070.06;;;28.78;39.95
61674;BME280;47573;43.832;5.974;2022-08-07T12:25:40;95058.53;;;28.76;40.11
61674;BME280;47573;43.832;5.974;2022-08-07T12:30:45;95053.53;;;28.88;39.84
61674;BME280;47573;43.832;5.974;2022-08-07T12:35:51;95061.75;;;28.88;39.45
61674;BME280;47573;43.832;5.974;2022-08-07T12:40:53;95055.16;;;28.89;39.53
61674;BME280;47573;43.832;5.974;2022-08-07T12:46:03;95045.22;;;28.93;39.49
61674;BME280;47573;43.832;5.974;2022-08-07T12:51:11;95050.19;;;28.91;39.13
61674;BME280;47573;43.832;5.974;2022-08-07T12:56:21;95043.09;;;28.85;39.40
61674;BME280;47573;43.832;5.974;2022-08-07T13:01:34;95036.53;;;28.81;39.38
61674;BME280;47573;43.832;5.974;2022-08-07T13:07:00;95034.28;;;28.88;39.05
61674;BME280;47573;43.832;5.974;2022-08-07T13:12:10;95035.91;;;28.89;38.67
61674;BME280;47573;43.832;5.974;2022-08-07T13:17:17;95029.66;;;28.78;38.98
61674;BME280;47573;43.832;5.974;2022-08-07T13:22:25;95023.28;;;28.88;38.56
61674;BME280;47573;43.832;5.974;2022-08-07T13:27:33;95017.69;;;28.98;38.59
61674;BME280;47573;43.832;5.974;2022-08-07T13:32:39;94998.06;;;28.76;38.28
61674;BME280;47573;43.832;5.974;2022-08-07T13:37:50;95006.81;;;28.88;38.49
61674;BME280;47573;43.832;5.974;2022-08-07T13:42:56;94999.56;;;28.97;38.29
61674;BME280;47573;43.832;5.974;2022-08-07T13:47:57;95009.25;;;28.89;38.48
61674;BME280;47573;43.832;5.974;2022-08-07T13:52:59;94997.44;;;28.89;38.40
61674;BME280;47573;43.832;5.974;2022-08-07T13:58:05;94993.59;;;28.90;38.16
61674;BME280;47573;43.832;5.974;2022-08-07T14:03:05;94992.53;;;28.86;38.18
61674;BME280;47573;43.832;5.974;2022-08-07T14:08:08;94985.88;;;28.92;37.95
61674;BME280;47573;43.832;5.974;2022-08-07T14:13:12;94979.56;;;28.91;37.93
61674;BME280;47573;43.832;5.974;2022-08-07T14:18:15;94974.34;;;28.90;37.82
61674;BME280;47573;43.832;5.974;2022-08-07T14:23:21;94961.66;;;28.94;37.72
61674;BME280;47573;43.832;5.974;2022-08-07T14:28:25;94962.56;;;29.42;37.98
61674;BME280;47573;43.832;5.974;2022-08-07T14:33:30;94956.94;;;29.99;37.22
61674;BME280;47573;43.832;5.974;2022-08-07T14:38:33;94950.31;;;30.18;37.23
61674;BME280;47573;43.832;5.974;2022-08-07T14:43:39;94953.69;;;30.34;37.21
61674;BME280;47573;43.832;5.974;2022-08-07T14:48:40;94952.44;;;30.45;37.43
61674;BME280;47573;43.832;5.974;2022-08-07T14:53:44;94950.72;;;30.49;37.32
61674;BME280;47573;43.832;5.974;2022-08-07T14:58:50;94925.34;;;29.49;38.24
61674;BME280;47573;43.832;5.974;2022-08-07T15:03:51;94919.59;;;29.22;38.22
61674;BME280;47573;43.832;5.974;2022-08-07T15:08:54;94929.44;;;29.28;37.77
61674;BME280;47573;43.832;5.974;2022-08-07T15:14:04;94921.59;;;29.16;37.55
61674;BME280;47573;43.832;5.974;2022-08-07T15:19:07;94913.72;;;29.05;37.80
61674;BME280;47573;43.832;5.974;2022-08-07T15:24:14;94918.41;;;29.04;37.47
61674;BME280;47573;43.832;5.974;2022-08-07T15:29:19;94916.97;;;29.07;37.31
61674;BME280;47573;43.832;5.974;2022-08-07T15:34:21;94901.63;;;29.06;37.38
61674;BME280;47573;43.832;5.974;2022-08-07T15:39:23;94906.88;;;29.02;37.34
61674;BME280;47573;43.832;5.974;2022-08-07T15:44:26;94906.69;;;28.94;36.95
61674;BME280;47573;43.832;5.974;2022-08-07T15:49:30;94917.09;;;28.97;37.12
61674;BME280;47573;43.832;5.974;2022-08-07T15:54:35;94912.63;;;29.06;36.78
61674;BME280;47573;43.832;5.974;2022-08-07T15:59:37;94914.31;;;29.02;36.77
61674;BME280;47573;43.832;5.974;2022-08-07T16:04:39;94904.94;;;29.03;36.74
61674;BME280;47573;43.832;5.974;2022-08-07T16:09:49;94916.88;;;28.93;36.58
61674;BME280;47573;43.832;5.974;2022-08-07T16:14:57;94902.66;;;29.15;36.24
61674;BME280;47573;43.832;5.974;2022-08-07T16:20:05;94911.59;;;28.97;36.40
61674;BME280;47573;43.832;5.974;2022-08-07T16:25:30;94891.31;;;28.93;36.45
61674;BME280;47573;43.832;5.974;2022-08-07T16:30:37;94909.16;;;28.95;36.16
61674;BME280;47573;43.832;5.974;2022-08-07T16:35:45;94905.69;;;28.85;36.28
61674;BME280;47573;43.832;5.974;2022-08-07T16:46:48;94897.31;;;28.95;36.28
61674;BME280;47573;43.832;5.974;2022-08-07T16:52:01;94895.75;;;28.89;36.20
61674;BME280;47573;43.832;5.974;2022-08-07T16:57:16;94894.66;;;28.90;36.11
61674;BME280;47573;43.832;5.974;2022-08-07T17:02:54;94899.31;;;29.13;36.31
61674;BME280;47573;43.832;5.974;2022-08-07T17:08:00;94900.16;;;29.84;35.36
61674;BME280;47573;43.832;5.974;2022-08-07T17:13:26;94908.50;;;30.16;35.50
61674;BME280;47573;43.832;5.974;2022-08-07T17:18:42;94904.94;;;30.35;35.88
61674;BME280;47573;43.832;5.974;2022-08-07T17:23:54;94906.19;;;30.42;36.06
61674;BME280;47573;43.832;5.974;2022-08-07T17:29:08;94912.03;;;30.54;35.82
61674;BME280;47573;43.832;5.974;2022-08-07T17:34:20;94922.69;;;30.61;36.15
61674;BME280;47573;43.832;5.974;2022-08-07T17:39:33;94918.56;;;30.77;36.21
61674;BME280;47573;43.832;5.974;2022-08-07T17:44:38;94928.97;;;30.80;36.67
61674;BME280;47573;43.832;5.974;2022-08-07T17:49:49;94932.34;;;31.41;32.43
61674;BME280;47573;43.832;5.974;2022-08-07T17:55:02;94939.16;;;31.85;28.51
61674;BME280;47573;43.832;5.974;2022-08-07T18:00:05;94937.31;;;31.39;29.15
61674;BME280;47573;43.832;5.974;2022-08-07T18:05:13;94945.50;;;31.44;28.87
61674;BME280;47573;43.832;5.974;2022-08-07T18:10:22;94952.22;;;31.38;28.31
61674;BME280;47573;43.832;5.974;2022-08-07T18:15:26;94963.72;;;31.45;28.56
61674;BME280;47573;43.832;5.974;2022-08-07T18:20:32;94987.56;;;31.36;28.63
61674;BME280;47573;43.832;5.974;2022-08-07T18:25:35;94979.66;;;31.62;25.42
61674;BME280;47573;43.832;5.974;2022-08-07T18:30:47;94998.75;;;31.45;24.37
61674;BME280;47573;43.832;5.974;2022-08-07T18:36:02;94996.94;;;31.35;23.97
61674;BME280;47573;43.832;5.974;2022-08-07T18:41:10;95013.50;;;31.35;23.80
61674;BME280;47573;43.832;5.974;2022-08-07T18:46:21;95018.63;;;31.28;23.47
61674;BME280;47573;43.832;5.974;2022-08-07T18:51:30;95031.19;;;31.02;23.08
61674;BME280;47573;43.832;5.974;2022-08-07T18:56:36;95024.88;;;31.02;23.93
61674;BME280;47573;43.832;5.974;2022-08-07T19:01:42;95038.19;;;30.76;23.79
61674;BME280;47573;43.832;5.974;2022-08-07T19:06:48;95044.69;;;30.66;23.65
61674;BME280;47573;43.832;5.974;2022-08-07T19:12:12;95047.72;;;30.65;23.31
61674;BME280;47573;43.832;5.974;2022-08-07T19:17:16;95049.97;;;30.63;23.25
61674;BME280;47573;43.832;5.974;2022-08-07T19:22:21;95064.34;;;30.60;22.95
61674;BME280;47573;43.832;5.974;2022-08-07T19:27:23;95070.91;;;30.22;24.10
61674;BME280;47573;43.832;5.974;2022-08-07T19:32:26;95079.59;;;29.86;23.98
61674;BME280;47573;43.832;5.974;2022-08-07T19:37:30;95095.84;;;30.06;24.94
61674;BME280;47573;43.832;5.974;2022-08-07T19:42:36;95095.28;;;30.09;25.00
61674;BME280;47573;43.832;5.974;2022-08-07T19:47:39;95105.75;;;29.21;25.30
61674;BME280;47573;43.832;5.974;2022-08-07T19:52:42;95108.25;;;29.23;28.05
61674;BME280;47573;43.832;5.974;2022-08-07T19:57:46;95106.13;;;29.10;27.57
61674;BME280;47573;43.832;5.974;2022-08-07T20:02:49;95110.13;;;28.89;27.23
61674;BME280;47573;43.832;5.974;2022-08-07T20:07:57;95116.59;;;29.08;26.94
61674;BME280;47573;43.832;5.974;2022-08-07T20:13:00;95118.56;;;29.02;26.88
61674;BME280;47573;43.832;5.974;2022-08-07T20:18:03;95118.22;;;29.09;27.20
61674;BME280;47573;43.832;5.974;2022-08-07T20:23:08;95124.69;;;28.89;27.49
61674;BME280;47573;43.832;5.974;2022-08-07T20:28:10;95119.03;;;28.71;28.20
61674;BME280;47573;43.832;5.974;2022-08-07T20:33:14;95136.44;;;28.56;30.42
61674;BME280;47573;43.832;5.974;2022-08-07T20:38:20;95141.56;;;28.68;32.85
61674;BME280;47573;43.832;5.974;2022-08-07T20:43:23;95147.34;;;27.72;35.60
61674;BME280;47573;43.832;5.974;2022-08-07T20:48:27;95137.47;;;27.76;36.15
61674;BME280;47573;43.832;5.974;2022-08-07T20:53:32;95141.28;;;27.85;36.56
61674;BME280;47573;43.832;5.974;2022-08-07T20:58:35;95145.09;;;28.09;36.28
61674;BME280;47573;43.832;5.974;2022-08-07T21:03:39;95132.00;;;27.31;37.27
61674;BME280;47573;43.832;5.974;2022-08-07T21:08:44;95141.06;;;27.51;37.46
61674;BME280;47573;43.832;5.974;2022-08-07T21:13:47;95147.25;;;28.22;37.25
61674;BME280;47573;43.832;5.974;2022-08-07T21:18:49;95149.16;;;28.27;37.99
61674;BME280;47573;43.832;5.974;2022-08-07T21:23:58;95167.03;;;28.14;38.58
61674;BME280;47573;43.832;5.974;2022-08-07T21:29:04;95166.63;;;28.51;39.15
61674;BME280;47573;43.832;5.974;2022-08-07T21:34:15;95176.44;;;27.73;42.59
61674;BME280;47573;43.832;5.974;2022-08-07T21:39:29;95180.84;;;27.69;43.64
61674;BME280;47573;43.832;5.974;2022-08-07T21:44:39;95178.63;;;27.81;44.53
61674;BME280;47573;43.832;5.974;2022-08-07T21:49:47;95173.16;;;27.71;45.60
61674;BME280;47573;43.832;5.974;2022-08-07T21:55:01;95170.69;;;27.39;46.74
61674;BME280;47573;43.832;5.974;2022-08-07T22:00:06;95174.50;;;27.63;46.55
61674;BME280;47573;43.832;5.974;2022-08-07T22:05:16;95174.25;;;27.65;46.64
61674;BME280;47573;43.832;5.974;2022-08-07T22:10:21;95177.56;;;27.42;47.45
61674;BME280;47573;43.832;5.974;2022-08-07T22:15:27;95182.16;;;27.16;48.40
61674;BME280;47573;43.832;5.974;2022-08-07T22:20:38;95178.91;;;27.29;48.67
61674;BME280;47573;43.832;5.974;2022-08-07T22:25:48;95178.63;;;27.21;49.57
61674;BME280;47573;43.832;5.974;2022-08-07T22:30:56;95184.06;;;27.16;50.13
61674;BME280;47573;43.832;5.974;2022-08-07T22:36:02;95167.25;;;26.67;51.47
61674;BME280;47573;43.832;5.974;2022-08-07T22:41:10;95188.25;;;27.73;49.60
61674;BME280;47573;43.832;5.974;2022-08-07T22:46:28;95174.47;;;26.98;51.51
61674;BME280;47573;43.832;5.974;2022-08-07T22:51:46;95181.91;;;27.53;50.99
61674;BME280;47573;43.832;5.974;2022-08-07T22:57:02;95184.66;;;27.28;52.20
61674;BME280;47573;43.832;5.974;2022-08-07T23:02:24;95182.81;;;28.63;48.45
61674;BME280;47573;43.832;5.974;2022-08-07T23:07:39;95181.28;;;29.39;45.87
61674;BME280;47573;43.832;5.974;2022-08-07T23:12:54;95169.00;;;29.60;44.89
61674;BME280;47573;43.832;5.974;2022-08-07T23:18:07;95172.44;;;29.76;44.32
61674;BME280;47573;43.832;5.974;2022-08-07T23:23:38;95163.81;;;29.87;44.35
61674;BME280;47573;43.832;5.974;2022-08-07T23:29:08;95161.16;;;30.06;43.58
61674;BME280;47573;43.832;5.974;2022-08-07T23:34:39;95145.59;;;30.15;42.98
61674;BME280;47573;43.832;5.974;2022-08-07T23:39:55;95148.97;;;30.36;42.47
61674;BME280;47573;43.832;5.974;2022-08-07T23:45:15;95150.09;;;30.35;42.49
61674;BME280;47573;43.832;5.974;2022-08-07T23:50:27;95154.47;;;30.36;42.43
61674;BME280;47573;43.832;5.974;2022-08-07T23:55:35;95151.69;;;30.41;42.27
